Time;durP1;ratioP1;P1;durP2;ratioP2;P2;SDS_P1;SDS_P2;PMS_P1;PMS_P2;Temp;Humidity;BMP_temperature;BMP_pressure;BME280_temperature;BME280_humidity;BME280_pressure;Samples;Min_cycle;Max_cycle;Signal;HPM_P1;HPM_P2
2022/07/16 00:02:55;;;;;;;3.92;2.95;;;14.00;99.90;;;;;;4999950;28;20288;-83
2022/07/16 00:05:20;;;;;;;4.90;2.40;;;13.90;99.90;;;;;;4998261;28;20938;-86
2022/07/16 00:07:46;;;;;;;2.10;1.90;;;13.90;99.90;;;;;;4994416;28;20851;-83
2022/07/16 00:10:11;;;;;;;8.10;2.93;;;13.80;99.90;;;;;;4995153;28;20190;-84
2022/07/16 00:12:37;;;;;;;4.53;2.43;;;13.80;99.90;;;;;;5014795;28;20187;-85
2022/07/16 00:15:04;;;;;;;3.73;3.20;;;13.70;99.90;;;;;;5006791;28;20198;-86
2022/07/16 00:17:30;;;;;;;5.25;2.40;;;13.70;99.90;;;;;;5005660;28;20210;-86
2022/07/16 00:19:55;;;;;;;5.60;2.70;;;13.80;99.90;;;;;;5000509;28;20206;-84
2022/07/16 00:22:21;;;;;;;5.63;2.60;;;13.70;99.90;;;;;;4998922;28;20206;-85
2022/07/16 00:24:46;;;;;;;4.93;2.70;;;13.70;99.90;;;;;;4998462;28;20186;-85
2022/07/16 00:27:12;;;;;;;4.90;2.17;;;13.60;99.90;;;;;;4991881;28;20211;-83
2022/07/16 00:29:38;;;;;;;7.97;3.00;;;13.60;99.90;;;;;;4992532;28;20277;-86
2022/07/16 00:32:04;;;;;;;5.03;2.90;;;13.60;99.90;;;;;;4998016;28;20906;-86
2022/07/16 00:34:30;;;;;;;3.50;2.37;;;;;;;;;;5014472;28;20894;-84
2022/07/16 00:36:55;;;;;;;4.23;2.57;;;13.60;99.90;;;;;;4989803;28;20457;-87
2022/07/16 00:39:21;;;;;;;8.10;2.97;;;13.70;99.90;;;;;;4993822;28;20445;-84
2022/07/16 00:41:48;;;;;;;3.10;2.13;;;13.70;99.90;;;;;;4990755;28;20263;-84
2022/07/16 00:44:16;;;;;;;4.05;2.35;;;13.60;99.90;;;;;;4994824;28;20860;-85
2022/07/16 00:46:43;;;;;;;5.30;2.50;;;13.60;99.90;;;;;;4991687;28;20206;-85
2022/07/16 00:49:09;;;;;;;3.88;2.10;;;13.60;99.90;;;;;;4993991;28;20870;-83
2022/07/16 00:51:37;;;;;;;3.15;2.53;;;13.50;99.90;;;;;;4993856;28;20186;-84
2022/07/16 00:54:03;;;;;;;10.70;3.00;;;13.50;99.90;;;;;;4997352;28;21002;-86
2022/07/16 00:56:29;;;;;;;6.57;2.20;;;13.60;99.90;;;;;;4985248;28;20222;-84
2022/07/16 00:58:56;;;;;;;6.40;2.60;;;13.60;99.90;;;;;;4989723;28;20630;-85
2022/07/16 01:01:23;;;;;;;3.25;2.67;;;13.50;99.90;;;;;;4980394;28;20198;-83
2022/07/16 01:03:48;;;;;;;7.57;2.53;;;13.50;99.90;;;;;;4991360;28;20298;-84
2022/07/16 01:06:15;;;;;;;5.10;3.00;;;13.50;99.90;;;;;;4996966;28;20718;-84
2022/07/16 01:08:44;;;;;;;6.70;3.42;;;13.40;99.90;;;;;;4995399;28;20202;-84
2022/07/16 01:11:12;;;;;;;4.35;2.50;;;13.40;99.90;;;;;;4995823;28;20183;-84
2022/07/16 01:13:40;;;;;;;3.42;2.38;;;13.40;99.90;;;;;;4995294;28;20224;-84
2022/07/16 01:16:06;;;;;;;4.60;2.15;;;13.30;99.90;;;;;;4991416;28;20182;-84
2022/07/16 01:18:32;;;;;;;6.13;2.70;;;13.30;99.90;;;;;;5000311;28;20207;-84
2022/07/16 01:20:58;;;;;;;3.77;2.57;;;13.30;99.90;;;;;;5011777;28;20197;-84
2022/07/16 01:23:25;;;;;;;2.80;2.10;;;13.30;99.90;;;;;;4997626;28;20456;-85
2022/07/16 01:25:52;;;;;;;9.68;2.95;;;13.30;99.90;;;;;;4988763;28;20273;-85
2022/07/16 01:28:18;;;;;;;4.55;2.17;;;13.20;99.90;;;;;;4997007;28;20686;-85
2022/07/16 01:30:44;;;;;;;4.90;2.78;;;13.10;99.90;;;;;;4992148;28;20194;-84
2022/07/16 01:33:25;;;;;;;2.20;1.80;;;13.00;99.90;;;;;;5006419;28;20190;-86
2022/07/16 01:35:52;;;;;;;4.25;2.35;;;12.90;99.90;;;;;;4990382;28;20178;-85
2022/07/16 01:38:18;;;;;;;3.65;2.10;;;12.90;99.90;;;;;;4987131;28;20210;-84
2022/07/16 01:40:43;;;;;;;3.70;2.43;;;12.90;99.90;;;;;;4996908;28;20178;-87
2022/07/16 01:43:14;;;;;;;3.87;2.27;;;12.90;99.90;;;;;;4996710;28;20283;-86
2022/07/16 01:45:40;;;;;;;4.00;2.33;;;12.90;99.90;;;;;;4992239;28;20207;-85
2022/07/16 01:48:05;;;;;;;2.50;2.30;;;12.80;99.90;;;;;;4996362;28;20745;-86
2022/07/16 01:50:31;;;;;;;5.10;2.33;;;12.70;99.90;;;;;;4991197;28;20566;-84
2022/07/16 01:52:57;;;;;;;7.30;2.17;;;;;;;;;;5010867;28;20190;-85
2022/07/16 01:55:22;;;;;;;4.53;2.90;;;12.60;99.90;;;;;;4989904;28;20679;-85
2022/07/16 01:57:48;;;;;;;5.27;2.40;;;12.60;99.90;;;;;;4998118;28;20464;-85
2022/07/16 02:00:14;;;;;;;4.60;2.33;;;12.70;99.90;;;;;;4992241;28;20285;-86
2022/07/16 02:02:39;;;;;;;2.97;2.50;;;12.70;99.90;;;;;;4993243;28;20214;-85
2022/07/16 02:05:05;;;;;;;5.23;2.80;;;12.60;99.90;;;;;;4996774;28;21358;-85
2022/07/16 02:07:31;;;;;;;9.17;2.33;;;12.60;99.90;;;;;;4996544;28;20210;-85
2022/07/16 02:09:56;;;;;;;7.23;2.43;;;12.60;99.90;;;;;;4998695;28;20178;-86
2022/07/16 02:12:22;;;;;;;4.27;2.73;;;12.60;99.90;;;;;;4996969;28;20257;-84
2022/07/16 02:14:47;;;;;;;3.60;2.20;;;12.60;99.90;;;;;;5013901;28;20178;-85
2022/07/16 02:17:13;;;;;;;3.30;2.33;;;12.60;99.90;;;;;;4999757;28;20241;-87
2022/07/16 02:19:38;;;;;;;4.80;2.60;;;12.60;99.90;;;;;;5004155;28;20225;-86
2022/07/16 02:22:06;;;;;;;3.63;2.47;;;12.60;99.90;;;;;;4998413;28;20202;-83
2022/07/16 02:24:32;;;;;;;2.67;2.30;;;12.60;99.90;;;;;;4995554;28;20680;-84
2022/07/16 02:26:57;;;;;;;3.27;2.50;;;12.60;99.90;;;;;;5000094;28;20213;-86
2022/07/16 02:29:23;;;;;;;5.37;2.47;;;12.60;99.90;;;;;;4998222;28;20244;-86
2022/07/16 02:31:48;;;;;;;3.60;2.43;;;12.60;99.90;;;;;;5001407;28;20736;-85
2022/07/16 02:34:14;;;;;;;4.23;2.70;;;12.60;99.90;;;;;;4999756;28;20224;-84
2022/07/16 02:36:39;;;;;;;3.67;1.90;;;12.60;99.90;;;;;;5002922;28;20226;-86
2022/07/16 02:39:05;;;;;;;9.53;2.27;;;12.60;99.90;;;;;;4992198;28;20281;-86
2022/07/16 02:41:30;;;;;;;4.20;2.60;;;12.60;99.90;;;;;;5006348;28;20210;-84
2022/07/16 02:43:56;;;;;;;4.17;2.70;;;12.30;99.90;;;;;;4996142;28;20773;-87
2022/07/16 02:46:21;;;;;;;6.60;2.43;;;12.70;99.90;;;;;;4995987;28;21021;-85
2022/07/16 02:48:47;;;;;;;4.70;2.23;;;12.70;99.90;;;;;;5038445;22;21739;-80
2022/07/16 02:51:12;;;;;;;4.77;2.30;;;12.60;99.90;;;;;;5016626;28;20174;-80
2022/07/16 02:53:39;;;;;;;5.00;2.80;;;12.60;99.90;;;;;;5019451;28;20186;-83
2022/07/16 02:56:05;;;;;;;5.82;2.65;;;12.50;99.90;;;;;;5021789;28;20261;-79
2022/07/16 02:58:30;;;;;;;8.25;2.70;;;12.50;99.90;;;;;;5029714;28;20321;-81
2022/07/16 03:00:56;;;;;;;3.50;1.90;;;12.40;99.90;;;;;;5011987;28;20265;-83
2022/07/16 03:03:21;;;;;;;5.07;2.37;;;12.40;99.90;;;;;;5019508;28;20279;-80
2022/07/16 03:05:47;;;;;;;8.10;2.70;;;12.40;99.90;;;;;;5015914;28;20186;-80
2022/07/16 03:08:12;;;;;;;4.60;2.27;;;12.40;99.90;;;;;;5020111;28;20280;-83
2022/07/16 03:10:38;;;;;;;2.90;2.13;;;12.40;99.90;;;;;;5022582;28;20174;-81
2022/07/16 03:13:04;;;;;;;3.83;2.40;;;12.30;99.90;;;;;;5024580;28;20228;-83
2022/07/16 03:15:29;;;;;;;2.13;1.93;;;12.30;99.90;;;;;;5019056;28;20428;-81
2022/07/16 03:17:55;;;;;;;7.00;2.60;;;12.30;99.90;;;;;;5017242;28;20213;-80
2022/07/16 03:20:21;;;;;;;2.80;2.13;;;12.20;99.90;;;;;;5015861;28;20214;-81
2022/07/16 03:22:47;;;;;;;3.93;2.77;;;12.20;99.90;;;;;;5017429;28;20203;-81
2022/07/16 03:25:14;;;;;;;2.85;2.10;;;12.20;99.90;;;;;;5022263;28;20235;-81
2022/07/16 03:27:40;;;;;;;2.85;2.30;;;12.10;99.90;;;;;;5020743;28;20203;-82
2022/07/16 03:30:06;;;;;;;5.17;2.10;;;12.00;99.90;;;;;;5019680;28;20707;-81
2022/07/16 03:32:32;;;;;;;4.85;2.78;;;12.00;99.90;;;;;;5025087;28;20190;-82
2022/07/16 03:34:57;;;;;;;2.80;1.70;;;12.00;99.90;;;;;;5027012;28;20316;-82
2022/07/16 03:37:23;;;;;;;6.10;2.33;;;12.10;99.90;;;;;;5020168;28;20217;-81
2022/07/16 03:39:49;;;;;;;5.33;2.47;;;12.20;99.90;;;;;;5014538;28;20207;-80
2022/07/16 03:42:14;;;;;;;3.97;2.27;;;12.20;99.90;;;;;;5013561;28;20206;-79
2022/07/16 03:44:40;;;;;;;6.90;2.80;;;12.20;99.90;;;;;;5019279;28;20267;-81
2022/07/16 03:47:05;;;;;;;3.00;1.77;;;12.20;99.90;;;;;;5018175;28;20217;-81
2022/07/16 03:49:31;;;;;;;4.87;2.03;;;12.20;99.90;;;;;;5020214;28;20216;-84
2022/07/16 03:51:57;;;;;;;3.10;2.07;;;12.30;99.90;;;;;;5020414;28;20188;-82
2022/07/16 03:54:22;;;;;;;2.73;2.10;;;12.30;99.90;;;;;;5024449;28;20266;-82
2022/07/16 03:56:48;;;;;;;4.00;2.70;;;12.40;99.90;;;;;;5017471;28;20182;-84
2022/07/16 03:59:13;;;;;;;8.80;2.37;;;12.40;99.90;;;;;;5020023;28;20206;-82
2022/07/16 04:01:39;;;;;;;5.30;2.43;;;12.50;99.90;;;;;;5023330;28;20212;-79
2022/07/16 04:04:05;;;;;;;3.63;2.00;;;12.60;99.90;;;;;;5026940;28;20428;-82
2022/07/16 04:06:30;;;;;;;4.83;1.97;;;12.60;99.90;;;;;;5046669;22;20222;-82
2022/07/16 04:08:56;;;;;;;4.33;2.60;;;12.70;99.90;;;;;;5038122;28;20174;-83
2022/07/16 04:11:21;;;;;;;4.40;2.00;;;12.70;99.90;;;;;;5044004;28;20221;-83
2022/07/16 04:13:47;;;;;;;2.50;2.00;;;12.80;99.90;;;;;;5036814;28;20544;-83
2022/07/16 04:16:12;;;;;;;7.43;1.80;;;13.00;99.90;;;;;;5035804;28;20217;-82
2022/07/16 04:18:38;;;;;;;3.13;2.10;;;13.10;99.90;;;;;;5037052;28;20174;-83
2022/07/16 04:21:05;;;;;;;4.57;1.90;;;13.20;99.90;;;;;;5028652;28;20174;-81
2022/07/16 04:23:31;;;;;;;3.60;1.75;;;13.30;99.90;;;;;;5029169;28;20468;-81
2022/07/16 04:25:57;;;;;;;4.33;1.93;;;13.40;99.90;;;;;;5026996;28;20201;-81
2022/07/16 04:28:22;;;;;;;5.80;2.23;;;14.00;99.90;;;;;;5024540;28;20437;-83
2022/07/16 04:30:48;;;;;;;8.10;2.30;;;15.30;99.90;;;;;;5026115;28;20178;-83
2022/07/16 04:33:13;;;;;;;3.23;1.73;;;17.10;99.90;;;;;;5031294;28;20193;-82
2022/07/16 04:35:39;;;;;;;6.70;2.37;;;19.00;99.90;;;;;;5024081;28;20533;-82
2022/07/16 04:38:05;;;;;;;3.03;1.97;;;20.90;99.90;;;;;;5029137;28;20182;-82
2022/07/16 04:40:31;;;;;;;6.00;2.70;;;22.80;97.80;;;;;;5025598;28;20293;-83
2022/07/16 04:42:56;;;;;;;5.67;2.20;;;24.70;91.10;;;;;;5026951;28;20302;-82
2022/07/16 04:45:22;;;;;;;6.10;2.50;;;25.90;77.80;;;;;;5024022;28;20284;-82
2022/07/16 04:47:48;;;;;;;3.13;2.40;;;26.80;74.40;;;;;;5025534;28;20181;-82
2022/07/16 04:50:14;;;;;;;3.47;2.13;;;27.80;63.60;;;;;;5040351;28;20190;-83
2022/07/16 04:52:39;;;;;;;2.40;2.20;;;28.00;60.70;;;;;;5018800;28;20448;-83
2022/07/16 04:55:07;;;;;;;3.00;2.63;;;26.70;59.90;;;;;;5012641;28;20221;-82
2022/07/16 04:57:32;;;;;;;4.70;2.70;;;27.20;59.20;;;;;;5015294;28;20196;-82
2022/07/16 04:59:58;;;;;;;6.70;2.97;;;28.00;58.10;;;;;;5019454;28;20436;-82
2022/07/16 05:05:08;;;;;;;5.40;2.93;;;28.20;56.30;;;;;;5019817;28;22157;-84
2022/07/16 05:07:34;;;;;;;3.37;2.97;;;27.70;57.10;;;;;;5014487;28;20438;-82
2022/07/16 05:10:00;;;;;;;4.87;3.07;;;27.60;55.70;;;;;;5019315;28;20450;-82
2022/07/16 05:12:25;;;;;;;4.23;3.10;;;28.00;54.70;;;;;;5017049;28;22032;-82
2022/07/16 05:14:51;;;;;;;4.43;3.20;;;28.40;53.90;;;;;;5019657;28;20191;-83
2022/07/16 05:17:16;;;;;;;5.47;3.57;;;28.40;54.50;;;;;;5016256;28;20180;-82
2022/07/16 05:19:42;;;;;;;3.03;2.60;;;29.30;54.50;;;;;;5014193;28;20192;-82
2022/07/16 05:22:08;;;;;;;3.50;3.00;;;31.50;51.60;;;;;;5020709;28;20203;-83
2022/07/16 05:24:34;;;;;;;3.30;2.93;;;33.70;48.80;;;;;;5015445;28;20186;-83
2022/07/16 05:26:59;;;;;;;5.80;3.70;;;35.60;45.80;;;;;;5014910;28;20194;-83
2022/07/16 05:29:25;;;;;;;7.53;4.50;;;37.20;42.20;;;;;;5019551;28;20436;-84
2022/07/16 05:31:51;;;;;;;5.70;5.30;;;38.60;38.20;;;;;;5039278;28;20189;-84
2022/07/16 05:34:17;;;;;;;8.83;6.70;;;39.30;34.60;;;;;;5040880;28;20675;-85
2022/07/16 05:36:42;;;;;;;7.47;6.97;;;38.90;33.30;;;;;;5032549;28;20888;-84
2022/07/16 05:39:08;;;;;;;9.00;8.20;;;39.40;32.70;;;;;;5028898;28;20199;-84
2022/07/16 05:41:33;;;;;;;9.10;8.40;;;39.50;32.00;;;;;;5030295;28;20281;-84
2022/07/16 05:44:00;;;;;;;8.03;7.60;;;38.30;31.80;;;;;;5033986;28;20185;-84
2022/07/16 05:46:26;;;;;;;9.80;8.97;;;37.30;31.40;;;;;;5033302;28;20256;-84
2022/07/16 05:48:52;;;;;;;9.87;8.97;;;36.70;31.70;;;;;;5030285;28;20488;-84
2022/07/16 05:51:17;;;;;;;9.30;8.70;;;36.40;32.10;;;;;;5032947;28;20199;-84
2022/07/16 05:53:43;;;;;;;7.53;6.97;;;35.40;33.00;;;;;;5037199;28;20216;-84
2022/07/16 05:56:08;;;;;;;8.10;7.33;;;35.70;32.80;;;;;;5036798;28;20734;-84
2022/07/16 05:58:34;;;;;;;8.63;7.80;;;36.90;32.70;;;;;;5039665;28;20176;-84
2022/07/16 06:00:59;;;;;;;11.33;7.53;;;36.80;31.50;;;;;;5025583;28;20181;-84
2022/07/16 06:03:25;;;;;;;8.00;7.30;;;37.70;31.30;;;;;;5038898;28;20706;-83
2022/07/16 06:05:50;;;;;;;8.30;7.50;;;37.80;31.60;;;;;;5020490;28;20593;-83
2022/07/16 06:08:16;;;;;;;9.37;8.57;;;39.00;29.90;;;;;;5031960;28;20276;-85
2022/07/16 06:10:41;;;;;;;10.40;9.77;;;40.80;29.90;;;;;;5031754;28;20196;-85
2022/07/16 06:13:07;;;;;;;10.60;9.80;;;38.80;29.20;;;;;;5029239;28;20278;-85
2022/07/16 06:15:33;;;;;;;10.27;9.30;;;38.00;29.20;;;;;;5032455;28;20221;-86
2022/07/16 06:17:58;;;;;;;10.57;9.93;;;37.60;29.70;;;;;;5027499;28;20555;-85
2022/07/16 06:20:24;;;;;;;10.40;9.77;;;39.10;30.10;;;;;;5024607;28;20427;-85
2022/07/16 06:22:50;;;;;;;13.23;12.13;;;40.10;29.20;;;;;;5028181;28;20222;-85
2022/07/16 06:25:15;;;;;;;11.73;11.03;;;39.90;28.50;;;;;;5034771;28;20201;-83
2022/07/16 06:27:44;;;;;;;12.43;11.43;;;39.60;28.40;;;;;;5013285;28;20217;-82
2022/07/16 06:30:10;;;;;;;11.83;11.03;;;38.70;28.60;;;;;;5015397;28;20195;-82
2022/07/16 06:32:36;;;;;;;10.57;9.87;;;38.30;29.80;;;;;;5015003;28;20448;-82
2022/07/16 06:35:02;;;;;;;11.47;10.60;;;38.70;29.70;;;;;;5016956;28;20873;-82
2022/07/16 06:37:27;;;;;;;13.50;12.70;;;39.80;29.30;;;;;;5014722;28;20190;-84
2022/07/16 06:39:53;;;;;;;12.27;11.57;;;39.60;27.90;;;;;;5013767;28;20186;-84
2022/07/16 06:42:18;;;;;;;11.63;10.83;;;38.10;28.00;;;;;;5015572;28;20200;-82
2022/07/16 06:44:44;;;;;;;10.97;10.27;;;38.30;29.30;;;;;;5019264;28;20272;-81
2022/07/16 06:47:09;;;;;;;10.50;9.90;;;38.30;29.70;;;;;;5015124;28;20667;-81
2022/07/16 06:49:35;;;;;;;11.30;10.60;;;39.00;28.00;;;;;;5014938;28;20189;-83
2022/07/16 06:52:00;;;;;;;12.27;11.37;;;39.30;27.90;;;;;;5012931;28;20189;-81
2022/07/16 06:54:26;;;;;;;10.77;10.27;;;39.60;28.60;;;;;;5017574;28;20677;-82
2022/07/16 06:56:52;;;;;;;12.83;12.00;;;41.30;27.00;;;;;;5013382;28;20216;-81
2022/07/16 06:59:17;;;;;;;12.17;11.37;;;39.90;27.00;;;;;;5010223;28;20453;-80
2022/07/16 07:01:43;;;;;;;10.87;9.90;;;38.30;27.50;;;;;;5015296;28;20214;-81
2022/07/16 07:04:09;;;;;;;9.93;9.33;;;37.30;28.40;;;;;;5019397;28;20193;-88
2022/07/16 07:06:34;;;;;;;11.53;10.80;;;37.70;29.00;;;;;;5022849;28;20217;-87
2022/07/16 07:09:00;;;;;;;10.93;10.43;;;39.60;28.60;;;;;;5022496;28;20260;-87
2022/07/16 07:11:26;;;;;;;12.80;11.90;;;39.30;28.30;;;;;;5027140;28;21947;-88
2022/07/16 07:13:52;;;;;;;11.67;10.97;;;39.20;28.00;;;;;;5032317;28;20188;-91
2022/07/16 07:16:18;;;;;;;12.20;11.20;;;39.20;28.10;;;;;;5021329;28;21297;-91
2022/07/16 07:18:44;;;;;;;12.37;11.40;;;38.80;28.00;;;;;;5020960;28;20461;-90
2022/07/16 07:21:10;;;;;;;11.17;10.47;;;39.30;28.20;;;;;;5024402;28;20187;-89
2022/07/16 07:23:35;;;;;;;11.67;10.97;;;39.60;28.40;;;;;;5028918;28;20213;-88
2022/07/16 07:26:01;;;;;;;12.37;11.43;;;40.30;26.40;;;;;;5026345;28;20562;-89
2022/07/16 07:28:28;;;;;;;12.13;11.30;;;40.30;27.50;;;;;;5023663;28;20177;-88
2022/07/16 07:30:54;;;;;;;11.37;10.73;;;39.40;27.50;;;;;;5026088;28;20170;-88
2022/07/16 07:33:20;;;;;;;11.10;10.50;;;39.10;27.40;;;;;;5030156;28;20960;-89
2022/07/16 07:35:45;;;;;;;12.90;11.87;;;38.60;26.80;;;;;;5030966;28;20454;-88
2022/07/16 07:38:11;;;;;;;11.40;10.70;;;39.20;28.40;;;;;;5027319;28;20191;-89
2022/07/16 07:40:37;;;;;;;11.13;10.43;;;;;;;;;;5027006;28;20176;-88
2022/07/16 07:43:04;;;;;;;11.23;10.30;;;38.30;26.10;;;;;;5033364;28;20225;-89
2022/07/16 07:45:31;;;;;;;10.63;9.90;;;37.50;27.80;;;;;;5034630;28;20792;-88
2022/07/16 07:47:56;;;;;;;10.60;9.90;;;37.00;27.40;;;;;;5031393;28;20444;-88
2022/07/16 07:50:22;;;;;;;10.70;10.10;;;36.10;28.70;;;;;;5027258;28;20435;-88
2022/07/16 07:52:49;;;;;;;10.73;9.80;;;34.80;29.30;;;;;;5027839;28;20189;-88
2022/07/16 07:55:15;;;;;;;10.63;9.80;;;34.60;29.80;;;;;;5026304;28;21278;-89
2022/07/16 07:57:40;;;;;;;10.50;9.83;;;35.20;29.90;;;;;;5030320;28;20479;-89
2022/07/16 08:00:08;;;;;;;10.37;9.77;;;35.80;29.50;;;;;;5026854;28;20259;-88
2022/07/16 08:02:33;;;;;;;10.20;9.27;;;35.60;29.30;;;;;;5025924;28;20229;-88
2022/07/16 08:04:59;;;;;;;9.50;8.90;;;37.40;29.70;;;;;;5028991;28;20483;-89
2022/07/16 08:07:25;;;;;;;10.00;9.37;;;37.90;28.40;;;;;;5029040;28;20235;-89
2022/07/16 08:09:50;;;;;;;9.73;9.23;;;37.10;27.60;;;;;;5029855;28;20680;-88
2022/07/16 08:12:16;;;;;;;9.67;8.83;;;36.50;27.90;;;;;;5027894;28;20185;-87
2022/07/16 08:14:41;;;;;;;8.53;7.73;;;33.30;31.60;;;;;;5028257;28;20182;-88
2022/07/16 08:17:07;;;;;;;8.10;7.50;;;33.30;32.20;;;;;;5029379;28;20266;-88
2022/07/16 08:19:33;;;;;;;8.80;8.07;;;34.50;31.50;;;;;;5031510;28;20189;-87
2022/07/16 08:22:00;;;;;;;9.10;8.20;;;36.10;30.90;;;;;;5025109;28;21121;-88
2022/07/16 08:27:10;;;;;;;8.43;7.73;;;33.90;29.50;;;;;;5025050;28;20455;-90
2022/07/16 08:29:36;;;;;;;8.17;7.57;;;35.60;29.70;;;;;;5028745;28;21621;-89
2022/07/16 08:32:03;;;;;;;9.10;8.00;;;34.00;28.00;;;;;;5028838;28;20841;-88
2022/07/16 08:34:28;;;;;;;8.23;7.63;;;35.00;30.20;;;;;;5027660;28;20444;-89
2022/07/16 08:36:54;;;;;;;8.20;7.50;;;34.60;28.30;;;;;;5029840;28;20503;-88
2022/07/16 08:39:20;;;;;;;8.30;7.70;;;35.00;28.20;;;;;;5028112;28;20286;-87
2022/07/16 08:41:46;;;;;;;7.87;7.13;;;35.10;27.60;;;;;;5028775;28;20205;-87
2022/07/16 08:44:13;;;;;;;8.13;7.73;;;36.60;28.50;;;;;;5029167;28;20612;-89
2022/07/16 08:46:39;;;;;;;9.80;9.00;;;37.70;26.50;;;;;;5027372;28;21477;-88
2022/07/16 08:49:05;;;;;;;10.00;9.20;;;37.70;26.60;;;;;;5029816;28;20425;-87
2022/07/16 08:51:35;;;;;;;8.87;8.47;;;36.20;26.80;;;;;;5026743;28;20444;-88
2022/07/16 08:54:06;;;;;;;7.73;7.27;;;34.30;27.70;;;;;;5023431;28;20569;-88
2022/07/16 08:56:34;;;;;;;7.97;7.20;;;33.60;29.20;;;;;;5029640;28;21266;-86
2022/07/16 08:59:01;;;;;;;8.83;8.23;;;33.40;29.70;;;;;;5028967;28;20442;-88
2022/07/16 09:01:29;;;;;;;7.87;7.27;;;34.10;29.00;;;;;;5028760;28;20936;-88
2022/07/16 09:03:57;;;;;;;7.90;7.20;;;34.20;28.60;;;;;;5026565;28;20469;-89
2022/07/16 09:06:22;;;;;;;8.40;7.90;;;33.80;29.60;;;;;;5028753;28;20462;-89
2022/07/16 09:08:48;;;;;;;9.23;8.17;;;35.00;29.20;;;;;;5029701;28;20699;-87
2022/07/16 09:11:23;;;;;;;7.83;7.23;;;33.50;28.70;;;;;;5024726;28;20164;-88
2022/07/16 09:14:05;;;;;;;7.37;6.70;;;32.10;29.70;;;;;;5028549;28;20189;-87
2022/07/16 09:16:41;;;;;;;8.07;6.40;;;31.70;30.50;;;;;;5030206;28;20453;-88
2022/07/16 09:19:16;;;;;;;7.33;6.47;;;31.70;30.30;;;;;;5025546;28;20468;-88
2022/07/16 09:22:00;;;;;;;7.50;6.90;;;32.20;30.00;;;;;;5026456;28;20487;-89
2022/07/16 09:24:44;;;;;;;8.37;7.77;;;33.30;30.10;;;;;;5031584;28;20424;-88
2022/07/16 09:27:13;;;;;;;13.83;6.60;;;32.30;29.60;;;;;;5029695;28;20446;-90
2022/07/16 09:29:54;;;;;;;7.03;6.57;;;32.50;29.40;;;;;;5032229;28;20445;-88
2022/07/16 09:32:27;;;;;;;7.40;6.80;;;32.70;29.60;;;;;;5034147;28;20416;-90
2022/07/16 09:35:13;;;;;;;7.80;7.40;;;34.20;28.30;;;;;;5032061;28;20426;-88
2022/07/16 09:37:56;;;;;;;6.90;6.53;;;33.80;28.20;;;;;;5034962;28;20431;-89
2022/07/16 09:40:34;;;;;;;7.30;6.90;;;33.60;30.00;;;;;;5032260;28;20412;-89
2022/07/16 09:43:01;;;;;;;8.10;7.50;;;34.90;29.00;;;;;;5030858;28;20814;-88
2022/07/16 09:45:28;;;;;;;6.93;6.63;;;34.10;29.00;;;;;;5022470;28;20437;-90
2022/07/16 09:47:54;;;;;;;7.43;6.93;;;33.90;28.60;;;;;;5028251;28;20962;-87
2022/07/16 09:50:23;;;;;;;8.17;7.77;;;34.00;28.70;;;;;;5023453;28;20441;-88
2022/07/16 09:52:48;;;;;;;7.90;7.40;;;32.50;28.60;;;;;;5032623;28;20207;-88
2022/07/16 09:55:14;;;;;;;7.60;7.10;;;32.10;30.40;;;;;;5045157;28;20459;-88
2022/07/16 09:57:42;;;;;;;7.87;7.33;;;32.00;29.90;;;;;;5033281;28;20177;-89
2022/07/16 10:00:08;;;;;;;7.43;6.93;;;30.90;31.00;;;;;;5049566;28;20181;-88
2022/07/16 10:02:34;;;;;;;6.70;6.30;;;32.00;31.60;;;;;;5027939;28;21002;-87
2022/07/16 10:05:00;;;;;;;6.90;6.50;;;32.40;29.60;;;;;;5026856;28;20966;-89
2022/07/16 10:07:26;;;;;;;7.20;6.80;;;33.10;30.30;;;;;;5034023;28;20420;-88
2022/07/16 10:09:52;;;;;;;6.03;5.63;;;;;;;;;;5027427;28;20193;-87
2022/07/16 10:12:20;;;;;;;4.57;4.13;;;30.60;29.80;;;;;;5025742;28;20962;-87
2022/07/16 10:14:48;;;;;;;3.00;1.40;;;30.20;30.70;;;;;;5030218;28;20501;-88
2022/07/16 10:17:37;;;;;;;2.83;1.30;;;30.10;31.10;;;;;;5033310;28;20420;-87
2022/07/16 10:20:08;;;;;;;3.90;1.00;;;30.80;32.30;;;;;;5030254;28;20456;-89
2022/07/16 10:22:45;;;;;;;6.13;5.53;;;31.90;30.50;;;;;;5026524;28;20453;-88
2022/07/16 10:25:17;;;;;;;6.10;5.80;;;32.50;29.90;;;;;;5026717;28;20452;-88
2022/07/16 10:27:44;;;;;;;6.50;6.10;;;32.50;28.60;;;;;;5029785;28;20432;-87
2022/07/16 10:30:18;;;;;;;6.57;6.20;;;31.20;29.20;;;;;;5046184;28;20983;-88
2022/07/16 10:33:02;;;;;;;5.83;5.53;;;31.20;29.60;;;;;;5035739;28;20424;-87
2022/07/16 10:35:30;;;;;;;4.73;4.43;;;30.90;30.70;;;;;;5035626;28;20440;-88
2022/07/16 10:38:27;;;;;;;3.77;2.97;;;30.30;31.60;;;;;;5035685;28;20436;-88
2022/07/16 10:41:06;;;;;;;2.80;1.20;;;29.30;32.60;;;;;;5033982;28;20426;-88
2022/07/16 10:43:34;;;;;;;4.53;1.53;;;28.70;34.20;;;;;;5030573;28;20452;-87
2022/07/16 10:46:02;;;;;;;3.30;1.30;;;27.30;35.90;;;;;;5034263;28;20978;-88
2022/07/16 10:48:30;;;;;;;1.50;1.10;;;27.30;36.40;;;;;;5032021;28;20439;-87
2022/07/16 10:51:25;;;;;;;1.67;1.40;;;26.90;38.70;;;;;;5031296;28;20426;-88
2022/07/16 10:53:57;;;;;;;2.63;1.23;;;26.10;40.00;;;;;;5029294;28;21063;-88
2022/07/16 10:56:50;;;;;;;1.93;1.53;;;26.40;39.50;;;;;;5029896;28;20449;-87
2022/07/16 10:59:23;;;;;;;1.70;1.37;;;25.80;39.30;;;;;;5028654;28;20425;-88
2022/07/16 11:01:54;;;;;;;2.97;1.63;;;25.60;39.00;;;;;;5034961;28;21008;-88
2022/07/16 11:04:27;;;;;;;4.13;1.90;;;25.60;41.20;;;;;;5031232;28;20420;-88
2022/07/16 11:06:54;;;;;;;3.33;1.60;;;25.80;40.20;;;;;;5036240;28;20452;-88
2022/07/16 11:09:30;;;;;;;2.20;1.53;;;25.70;40.50;;;;;;5032608;28;20417;-87
2022/07/16 11:12:04;;;;;;;2.20;1.50;;;25.70;40.80;;;;;;5030263;28;20959;-89
2022/07/16 11:14:30;;;;;;;3.30;1.30;;;25.80;39.90;;;;;;5035208;28;20908;-88
2022/07/16 11:16:57;;;;;;;3.10;1.30;;;25.30;40.70;;;;;;5032998;28;20532;-88
2022/07/16 11:19:23;;;;;;;2.27;1.67;;;25.30;42.20;;;;;;5036072;28;20181;-91
2022/07/16 11:21:55;;;;;;;1.97;1.67;;;25.10;41.60;;;;;;5034936;28;20460;-88
2022/07/16 11:24:20;;;;;;;6.03;1.80;;;25.30;41.10;;;;;;5034743;28;20420;-90
2022/07/16 11:26:48;;;;;;;2.60;1.70;;;25.50;41.20;;;;;;5037284;28;20437;-88
2022/07/16 11:29:24;;;;;;;3.67;1.67;;;25.60;41.30;;;;;;5036081;28;20424;-90
2022/07/16 11:31:55;;;;;;;2.83;1.20;;;25.60;41.40;;;;;;5022411;28;20953;-91
2022/07/16 11:34:22;;;;;;;2.10;1.67;;;25.60;40.80;;;;;;5015193;28;20501;-89
2022/07/16 11:36:50;;;;;;;1.70;1.57;;;25.80;40.70;;;;;;5014787;28;20584;-89
2022/07/16 11:39:19;;;;;;;7.27;1.53;;;25.90;39.10;;;;;;5014634;28;20456;-90
2022/07/16 11:41:51;;;;;;;6.07;1.80;;;26.10;40.50;;;;;;5015220;28;20476;-90
2022/07/16 11:44:38;;;;;;;1.30;1.10;;;25.90;40.90;;;;;;5020157;28;20417;-90
2022/07/16 11:47:10;;;;;;;4.13;1.70;;;25.80;40.40;;;;;;5035155;28;20435;-88
2022/07/16 11:49:44;;;;;;;3.37;2.00;;;25.90;41.60;;;;;;5035565;28;20404;-89
2022/07/16 11:52:24;;;;;;;3.17;1.63;;;26.00;42.00;;;;;;5035315;28;20411;-90
2022/07/16 11:54:51;;;;;;;3.13;1.83;;;26.30;40.80;;;;;;5048472;28;20416;-89
2022/07/16 11:57:17;;;;;;;2.20;2.00;;;26.30;41.30;;;;;;5038283;28;20434;-89
2022/07/16 11:59:55;;;;;;;2.20;1.63;;;26.20;41.30;;;;;;5035557;28;20413;-89
2022/07/16 12:02:23;;;;;;;3.47;1.53;;;26.20;42.20;;;;;;5031556;28;20481;-89
2022/07/16 12:04:51;;;;;;;3.70;1.77;;;26.00;41.10;;;;;;5034297;28;20435;-88
2022/07/16 12:07:31;;;;;;;2.40;1.50;;;26.00;41.30;;;;;;5034453;28;20451;-87
2022/07/16 12:10:02;;;;;;;2.97;1.70;;;25.70;41.00;;;;;;5034035;28;20434;-87
2022/07/16 12:12:32;;;;;;;3.10;1.80;;;26.00;42.80;;;;;;5034728;28;20397;-88
2022/07/16 12:15:06;;;;;;;10.97;2.10;;;25.50;41.60;;;;;;5030724;28;20429;-88
2022/07/16 12:17:37;;;;;;;8.00;2.47;;;25.50;42.00;;;;;;5043617;28;20428;-92
2022/07/16 12:20:14;;;;;;;2.67;2.03;;;25.50;41.90;;;;;;5030390;28;20440;-91
2022/07/16 12:23:10;;;;;;;8.63;3.00;;;25.50;42.60;;;;;;5025319;28;20464;-88
2022/07/16 12:25:37;;;;;;;6.23;2.23;;;25.60;43.00;;;;;;5033575;28;20468;-88
2022/07/16 12:28:08;;;;;;;2.00;1.80;;;26.00;43.40;;;;;;5034529;28;20990;-88
2022/07/16 12:30:49;;;;;;;3.03;2.10;;;25.80;41.30;;;;;;5029784;28;20413;-90
2022/07/16 12:33:15;;;;;;;3.20;1.80;;;25.60;41.40;;;;;;5031991;28;20795;-87
2022/07/16 12:35:43;;;;;;;3.73;2.13;;;25.70;42.20;;;;;;5033343;28;20452;-88
2022/07/16 12:38:37;;;;;;;2.13;1.57;;;25.90;41.10;;;;;;5031054;28;20191;-89
2022/07/16 12:41:07;;;;;;;2.80;2.20;;;26.20;41.20;;;;;;5027212;28;20567;-87
2022/07/16 12:43:34;;;;;;;6.53;2.43;;;26.30;41.60;;;;;;5029760;28;20463;-87
2022/07/16 12:46:01;;;;;;;3.30;2.20;;;26.10;42.20;;;;;;5026004;28;20468;-88
2022/07/16 12:48:44;;;;;;;1.63;1.50;;;26.00;42.70;;;;;;5031737;28;20447;-89
2022/07/16 12:51:12;;;;;;;2.30;1.93;;;25.90;42.50;;;;;;5032483;28;20828;-88
2022/07/16 12:53:38;;;;;;;7.40;2.43;;;26.00;43.30;;;;;;5027714;28;20504;-88
2022/07/16 12:58:48;;;;;;;3.50;2.50;;;26.30;42.70;;;;;;5032138;28;20189;-88